ADDS METAR Data INFO
IDs: Format: Raw Decoded Include TAF

Data at: 0353 UTC 18 Oct 2017

KJYO 180335Z AUTO 24004KT 10SM CLR 07/05 A3034 RMK AO2
KJYO 180315Z AUTO 24004KT 10SM CLR 06/05 A3035 RMK AO2
KJYO 180255Z AUTO 24003KT 10SM CLR 07/06 A3035 RMK AO2
KJYO 180235Z AUTO 24004KT 10SM CLR 07/06 A3034 RMK AO2
KJYO 180215Z AUTO 23005KT 10SM CLR 07/06 A3034 RMK AO2
KJYO 180155Z AUTO 23003KT 10SM CLR 07/06 A3033 RMK AO2
KJYO 180135Z AUTO 00000KT 10SM CLR 08/06 A3033 RMK AO2
KJYO 180115Z AUTO 21003KT 10SM CLR 08/06 A3032 RMK AO2
KJYO 180055Z AUTO 21005KT 10SM CLR 08/06 A3032 RMK AO2
KJYO 180035Z AUTO 00000KT 10SM CLR 10/06 A3031 RMK AO2
KJYO 180015Z AUTO 00000KT 10SM CLR 10/06 A3031 RMK AO2
KJYO 172355Z AUTO 22003KT 10SM CLR 11/06 A3031 RMK AO2
KJYO 172335Z AUTO 20004KT 10SM CLR 11/05 A3030 RMK AO2
KJYO 172315Z AUTO 18004KT 10SM CLR 13/04 A3030 RMK AO2
KJYO 172255Z AUTO 19004KT 10SM CLR 14/04 A3030 RMK AO2
KJYO 172235Z AUTO 00000KT 10SM CLR 15/03 A3030 RMK AO2
KJYO 172215Z AUTO 18003KT 10SM CLR 16/02 A3030 RMK AO2
KJYO 172155Z AUTO 00000KT 10SM CLR 17/02 A3030 RMK AO2
KJYO 172135Z AUTO 00000KT 10SM CLR 17/02 A3030 RMK AO2
KJYO 172115Z AUTO 25003KT 10SM CLR 17/02 A3030 RMK AO2
KJYO 172055Z AUTO 00000KT 10SM CLR 17/01 A3030 RMK AO2
KJYO 172035Z AUTO 00000KT 10SM CLR 17/02 A3031 RMK AO2
KJYO 172015Z AUTO 00000KT 10SM CLR 17/02 A3031 RMK AO2
KJYO 171955Z AUTO 25003KT 7SM CLR 16/02 A3031 RMK AO2
KJYO 171935Z AUTO 01003KT 10SM CLR 17/02 A3031 RMK AO2
KJYO 171915Z AUTO 00000KT 10SM CLR 17/02 A3031 RMK AO2
KJYO 171855Z AUTO 35004KT 10SM CLR 16/01 A3031 RMK AO2
KJYO 171835Z AUTO 29006KT 230V300 10SM CLR 16/02 A3032 RMK AO2
KJYO 171815Z AUTO 32003KT 10SM CLR 16/02 A3033 RMK AO2
KJYO 171755Z AUTO 29005KT 10SM CLR 16/03 A3034 RMK AO2
KJYO 171735Z AUTO 36005KT 10SM CLR 16/02 A3035 RMK AO2
KJYO 171715Z AUTO 26003KT 10SM CLR 15/03 A3035 RMK AO2
KJYO 171655Z AUTO 33003KT 10SM CLR 15/03 A3036 RMK AO2
KJYO 171635Z AUTO 00000KT 10SM CLR 15/02 A3038 RMK AO2
KJYO 171615Z AUTO 00000KT 10SM CLR 14/03 A3039 RMK AO2
KJYO 171555Z AUTO 35005KT 10SM CLR 13/03 A3039 RMK AO2
KJYO 171535Z AUTO 02005KT 10SM CLR 13/03 A3040 RMK AO2
KJYO 171515Z AUTO 34003KT 10SM CLR 13/04 A3040 RMK AO2
KJYO 171455Z AUTO 00000KT 10SM CLR 12/03 A3041 RMK AO2
KJYO 171435Z AUTO 00000KT 10SM CLR 12/02 A3041 RMK AO2
KJYO 171415Z AUTO 36003KT 10SM CLR 11/03 A3041 RMK AO2
KJYO 171355Z AUTO 00000KT 10SM CLR 11/03 A3041 RMK AO2
KJYO 171335Z AUTO 00000KT 10SM CLR 10/04 A3041 RMK AO2
KJYO 171315Z AUTO 10SM CLR 09/05 A3041 RMK AO2
KJYO 171255Z AUTO 33003KT 10SM CLR 08/04 A3040 RMK AO2
KJYO 171235Z AUTO 32003KT 10SM CLR 07/05 A3039 RMK AO2
KJYO 171215Z AUTO 30003KT 10SM CLR 05/05 A3038 RMK AO2
KJYO 171155Z AUTO 33004KT 10SM CLR 03/03 A3037 RMK AO2
KJYO 171135Z AUTO 00000KT 10SM CLR 05/03 A3037 RMK AO2
KJYO 171115Z AUTO 00000KT 10SM CLR 05/03 A3036 RMK AO2
KJYO 171055Z AUTO 00000KT 10SM CLR 05/03 A3036 RMK AO2
KJYO 171035Z AUTO 00000KT 10SM CLR 06/03 A3035 RMK AO2
KJYO 171015Z AUTO 34005KT 10SM CLR 06/03 A3034 RMK AO2
KJYO 170955Z AUTO 34004KT 10SM CLR 06/03 A3034 RMK AO2
KJYO 170935Z AUTO 34004KT 10SM CLR 06/03 A3034 RMK AO2
KJYO 170915Z AUTO 00000KT 10SM CLR 06/03 A3033 RMK AO2
KJYO 170855Z AUTO 34003KT 10SM CLR 06/03 A3032 RMK AO2
KJYO 170835Z AUTO 34006KT 10SM CLR 07/03 A3031 RMK AO2
KJYO 170815Z AUTO 00000KT 10SM CLR 07/03 A3031 RMK AO2
KJYO 170755Z AUTO 33005KT 10SM CLR 06/03 A3030 RMK AO2
KJYO 170735Z AUTO 34004KT 10SM CLR 07/03 A3030 RMK AO2
KJYO 170715Z AUTO 35004KT 10SM CLR 07/03 A3030 RMK AO2
KJYO 170655Z AUTO 36004KT 10SM CLR 07/04 A3030 RMK AO2
KJYO 170635Z AUTO 00000KT 10SM CLR 07/05 A3030 RMK AO2
KJYO 170615Z AUTO 32003KT 10SM CLR 06/04 A3029 RMK AO2
KJYO 170555Z AUTO 00000KT 10SM CLR 08/03 A3029 RMK AO2
KJYO 170535Z AUTO 05003KT 10SM CLR 09/03 A3029 RMK AO2
KJYO 170515Z AUTO 35005KT 10SM CLR 08/03 A3028 RMK AO2
KJYO 170455Z AUTO 00000KT 10SM CLR 10/03 A3028 RMK AO2
KJYO 170435Z AUTO 36004KT 10SM CLR 10/03 A3028 RMK AO2
KJYO 170415Z AUTO 35006KT 10SM CLR 10/03 A3028 RMK AO2
KJYO 170355Z AUTO 33009KT 10SM CLR 10/04 A3027 RMK AO2
KJYO 170335Z AUTO 33010KT 10SM CLR 10/04 A3028 RMK AO2
KJYO 170315Z AUTO 33007KT 10SM CLR 10/05 A3028 RMK AO2
KJYO 170255Z AUTO 33006KT 10SM CLR 10/04 A3027 RMK AO2
KJYO 170235Z AUTO 32004KT 10SM CLR 11/04 A3027 RMK AO2
KJYO 170215Z AUTO 34006KT 10SM CLR 11/04 A3026 RMK AO2
KJYO 170155Z AUTO 35006KT 10SM CLR 11/03 A3026 RMK AO2
KJYO 170135Z AUTO 34007KT 10SM CLR 12/03 A3025 RMK AO2
KJYO 170115Z AUTO 35008KT 10SM CLR 12/03 A3024 RMK AO2
KJYO 170055Z AUTO 35008KT 10SM CLR 12/04 A3023 RMK AO2
KJYO 170035Z AUTO 35007KT 10SM CLR 12/05 A3022 RMK AO2
KJYO 170015Z AUTO 35006KT 10SM CLR 12/04 A3021 RMK AO2
KJYO 162355Z AUTO 34006KT 10SM CLR 12/04 A3021 RMK AO2
KJYO 162335Z AUTO 34005KT 10SM CLR 13/04 A3020 RMK AO2
KJYO 162315Z AUTO 34004KT 10SM CLR 13/04 A3019 RMK AO2
KJYO 162255Z AUTO 35005KT 10SM CLR 14/03 A3018 RMK AO2
KJYO 162235Z AUTO 36007KT 10SM CLR 15/03 A3017 RMK AO2
KJYO 162215Z AUTO 35011G16KT 10SM CLR 16/03 A3016 RMK AO2
KJYO 162155Z AUTO 33015G21KT 10SM CLR 16/03 A3015 RMK AO2
KJYO 162135Z AUTO 34018G22KT 10SM CLR 17/03 A3015 RMK AO2
KJYO 162115Z AUTO 33014G21KT 10SM CLR 17/03 A3014 RMK AO2
KJYO 162055Z AUTO 34016G21KT 10SM CLR 17/03 A3014 RMK AO2
KJYO 162035Z AUTO 35017G22KT 10SM CLR 18/03 A3014 RMK AO2
KJYO 162015Z AUTO 35015G23KT 10SM CLR 18/03 A3013 RMK AO2
KJYO 161955Z AUTO 35015G20KT 10SM CLR 18/04 A3013 RMK AO2
KJYO 161935Z AUTO 35013G22KT 10SM CLR 18/03 A3013 RMK AO2
KJYO 161915Z AUTO 01011G22KT 10SM CLR 18/03 A3012 RMK AO2
KJYO 161855Z AUTO 34012G25KT 10SM CLR 18/03 A3012 RMK AO2
KJYO 161835Z AUTO 36015G22KT 10SM CLR 17/05 A3012 RMK AO2
KJYO 161815Z AUTO 35014G21KT 10SM CLR 17/05 A3012 RMK AO2
KJYO 161755Z AUTO 34012G18KT 10SM CLR 17/05 A3013 RMK AO2
KJYO 161735Z AUTO 35016G19KT 10SM CLR 15/05 A3013 RMK AO2
KJYO 161715Z AUTO 34014G22KT 10SM CLR 17/06 A3013 RMK AO2
KJYO 161655Z AUTO 36020G26KT 10SM CLR 16/06 A3013 RMK AO2
KJYO 161635Z AUTO 35021G26KT 10SM CLR 16/06 A3013 RMK AO2
KJYO 161615Z AUTO 35018G23KT 10SM CLR 15/07 A3013 RMK AO2
KJYO 161555Z AUTO 35015G21KT 10SM CLR 15/07 A3012 RMK AO2